sensor_id;sensor_type;location;lat;lon;timestamp;pressure;altitude;pressure_sealevel;temperature;humidity
83733;BME280;73710;49.968;8.338;2023-11-21T05:02:42;100116.09;;;8.67;100.00
83733;BME280;73710;49.968;8.338;2023-11-21T05:05:08;100124.03;;;8.65;100.00
83733;BME280;73710;49.968;8.338;2023-11-21T05:07:35;100131.91;;;8.65;100.00
83733;BME280;73710;49.968;8.338;2023-11-21T05:10:01;100126.97;;;8.76;100.00
83733;BME280;73710;49.968;8.338;2023-11-21T05:12:31;100135.91;;;8.72;100.00
83733;BME280;73710;49.968;8.338;2023-11-21T05:15:01;100139.75;;;8.65;100.00
83733;BME280;73710;49.968;8.338;2023-11-21T05:17:28;100149.47;;;8.63;100.00
83733;BME280;73710;49.968;8.338;2023-11-21T05:19:53;100151.94;;;8.66;100.00
83733;BME280;73710;49.968;8.338;2023-11-21T05:22:19;100147.53;;;8.67;100.00
83733;BME280;73710;49.968;8.338;2023-11-21T05:24:45;100150.16;;;8.67;100.00
83733;BME280;73710;49.968;8.338;2023-11-21T05:27:10;100151.94;;;8.66;100.00
83733;BME280;73710;49.968;8.338;2023-11-21T05:29:35;100146.63;;;8.68;100.00
83733;BME280;73710;49.968;8.338;2023-11-21T05:32:02;100152.66;;;8.70;100.00
83733;BME280;73710;49.968;8.338;2023-11-21T05:34:28;100151.63;;;8.72;100.00
83733;BME280;73710;49.968;8.338;2023-11-21T05:36:53;100162.13;;;8.72;100.00
83733;BME280;73710;49.968;8.338;2023-11-21T05:39:18;100167.66;;;8.66;100.00
83733;BME280;73710;49.968;8.338;2023-11-21T05:41:44;100167.66;;;8.66;100.00
83733;BME280;73710;49.968;8.338;2023-11-21T05:44:10;100171.34;;;8.62;100.00
83733;BME280;73710;49.968;8.338;2023-11-21T05:46:36;100164.13;;;8.67;100.00
83733;BME280;73710;49.968;8.338;2023-11-21T05:49:01;100172.22;;;8.63;100.00
83733;BME280;73710;49.968;8.338;2023-11-21T05:51:26;100173.16;;;8.62;100.00
83733;BME280;73710;49.968;8.338;2023-11-21T05:53:52;100166.13;;;8.62;100.00
83733;BME280;73710;49.968;8.338;2023-11-21T05:56:17;100176.78;;;8.59;100.00
83733;BME280;73710;49.968;8.338;2023-11-21T05:58:43;100181.16;;;8.59;100.00
83733;BME280;73710;49.968;8.338;2023-11-21T06:01:08;100190.88;;;8.57;100.00
83733;BME280;73710;49.968;8.338;2023-11-21T06:03:34;100194.34;;;8.57;100.00
83733;BME280;73710;49.968;8.338;2023-11-21T06:06:00;100197.06;;;8.56;100.00
83733;BME280;73710;49.968;8.338;2023-11-21T06:08:25;100196.31;;;8.52;100.00
83733;BME280;73710;49.968;8.338;2023-11-21T06:10:51;100195.56;;;8.50;100.00
83733;BME280;73710;49.968;8.338;2023-11-21T06:13:16;100200.03;;;8.48;100.00
83733;BME280;73710;49.968;8.338;2023-11-21T06:15:45;100199.16;;;8.48;100.00
83733;BME280;73710;49.968;8.338;2023-11-21T06:18:10;100201.72;;;8.49;100.00
83733;BME280;73710;49.968;8.338;2023-11-21T06:20:36;100201.00;;;8.46;100.00
83733;BME280;73710;49.968;8.338;2023-11-21T06:23:02;100215.44;;;8.54;100.00
83733;BME280;73710;49.968;8.338;2023-11-21T06:25:29;100222.53;;;8.52;100.00
83733;BME280;73710;49.968;8.338;2023-11-21T06:27:54;100223.41;;;8.53;100.00
83733;BME280;73710;49.968;8.338;2023-11-21T06:30:19;100232.13;;;8.53;100.00
83733;BME280;73710;49.968;8.338;2023-11-21T06:32:45;100239.97;;;8.53;100.00
83733;BME280;73710;49.968;8.338;2023-11-21T06:35:11;100239.97;;;8.53;100.00
83733;BME280;73710;49.968;8.338;2023-11-21T06:37:37;100234.75;;;8.53;100.00
83733;BME280;73710;49.968;8.338;2023-11-21T06:40:03;100238.28;;;8.52;100.00
83733;BME280;73710;49.968;8.338;2023-11-21T06:42:31;100247.06;;;8.51;100.00
83733;BME280;73710;49.968;8.338;2023-11-21T06:44:58;100242.91;;;8.47;100.00
83733;BME280;73710;49.968;8.338;2023-11-21T06:47:24;100243.72;;;8.48;100.00
83733;BME280;73710;49.968;8.338;2023-11-21T06:49:53;100250.03;;;8.44;100.00
83733;BME280;73710;49.968;8.338;2023-11-21T06:52:19;100255.84;;;8.50;100.00
83733;BME280;73710;49.968;8.338;2023-11-21T06:54:44;100258.41;;;8.52;100.00
83733;BME280;73710;49.968;8.338;2023-11-21T06:57:11;100260.78;;;8.56;100.00
83733;BME280;73710;49.968;8.338;2023-11-21T06:59:36;100272.78;;;8.62;100.00
83733;BME280;73710;49.968;8.338;2023-11-21T07:02:02;100279.63;;;8.64;100.00
83733;BME280;73710;49.968;8.338;2023-11-21T07:04:27;100286.38;;;8.70;100.00
83733;BME280;73710;49.968;8.338;2023-11-21T07:06:53;100284.59;;;8.70;100.00
83733;BME280;73710;49.968;8.338;2023-11-21T07:09:19;100287.28;;;8.69;100.00
83733;BME280;73710;49.968;8.338;2023-11-21T07:11:48;100288.94;;;8.71;100.00
83733;BME280;73710;49.968;8.338;2023-11-21T07:14:17;100284.59;;;8.70;100.00
83733;BME280;73710;49.968;8.338;2023-11-21T07:16:44;100300.06;;;8.76;100.00
83733;BME280;73710;49.968;8.338;2023-11-21T07:19:11;100303.50;;;8.77;100.00
83733;BME280;73710;49.968;8.338;2023-11-21T07:21:38;100312.03;;;8.82;100.00
83733;BME280;73710;49.968;8.338;2023-11-21T07:24:05;100320.16;;;8.94;100.00
83733;BME280;73710;49.968;8.338;2023-11-21T07:26:31;100319.38;;;8.92;100.00
83733;BME280;73710;49.968;8.338;2023-11-21T07:28:58;100324.69;;;8.91;100.00
83733;BME280;73710;49.968;8.338;2023-11-21T07:31:24;100310.56;;;8.93;100.00
83733;BME280;73710;49.968;8.338;2023-11-21T07:33:50;100320.78;;;8.99;100.00
83733;BME280;73710;49.968;8.338;2023-11-21T07:36:16;100321.53;;;9.01;100.00
83733;BME280;73710;49.968;8.338;2023-11-21T07:38:44;100326.19;;;9.14;100.00
83733;BME280;73710;49.968;8.338;2023-11-21T07:41:10;100324.81;;;9.24;100.00
83733;BME280;73710;49.968;8.338;2023-11-21T07:43:35;100334.81;;;9.34;100.00
83733;BME280;73710;49.968;8.338;2023-11-21T07:46:04;100329.97;;;9.44;100.00
83733;BME280;73710;49.968;8.338;2023-11-21T07:48:33;100328.81;;;9.49;100.00
83733;BME280;73710;49.968;8.338;2023-11-21T07:51:00;100331.81;;;9.59;100.00
83733;BME280;73710;49.968;8.338;2023-11-21T07:53:26;100339.22;;;9.68;100.00
83733;BME280;73710;49.968;8.338;2023-11-21T07:56:05;100353.59;;;9.61;100.00
83733;BME280;73710;49.968;8.338;2023-11-21T07:58:31;100352.44;;;9.66;100.00
83733;BME280;73710;49.968;8.338;2023-11-21T08:00:59;100353.28;;;9.67;100.00
83733;BME280;73710;49.968;8.338;2023-11-21T08:03:24;100360.56;;;9.79;100.00
83733;BME280;73710;49.968;8.338;2023-11-21T08:05:52;100357.84;;;9.80;100.00
83733;BME280;73710;49.968;8.338;2023-11-21T08:08:17;100360.31;;;9.83;100.00
83733;BME280;73710;49.968;8.338;2023-11-21T08:10:44;100367.09;;;9.87;100.00
83733;BME280;73710;49.968;8.338;2023-11-21T08:13:11;100361.03;;;9.87;100.00
83733;BME280;73710;49.968;8.338;2023-11-21T08:15:40;100363.94;;;9.98;100.00
83733;BME280;73710;49.968;8.338;2023-11-21T08:18:05;100373.69;;;9.96;100.00
83733;BME280;73710;49.968;8.338;2023-11-21T08:20:33;100365.97;;;9.93;100.00
83733;BME280;73710;49.968;8.338;2023-11-21T08:23:00;100371.53;;;9.87;100.00
83733;BME280;73710;49.968;8.338;2023-11-21T08:25:26;100382.19;;;9.84;100.00
83733;BME280;73710;49.968;8.338;2023-11-21T08:27:52;100382.50;;;9.78;100.00
83733;BME280;73710;49.968;8.338;2023-11-21T08:30:17;100372.91;;;9.77;100.00
83733;BME280;73710;49.968;8.338;2023-11-21T08:32:44;100387.75;;;9.78;100.00
83733;BME280;73710;49.968;8.338;2023-11-21T08:35:10;100390.06;;;9.84;100.00
83733;BME280;73710;49.968;8.338;2023-11-21T08:37:37;100392.56;;;9.87;100.00
83733;BME280;73710;49.968;8.338;2023-11-21T08:40:05;100390.53;;;9.92;100.00
83733;BME280;73710;49.968;8.338;2023-11-21T08:42:35;100397.41;;;9.95;100.00
83733;BME280;73710;49.968;8.338;2023-11-21T08:45:00;100397.00;;;10.02;100.00
83733;BME280;73710;49.968;8.338;2023-11-21T08:47:25;100400.41;;;10.04;100.00
83733;BME280;73710;49.968;8.338;2023-11-21T08:49:51;100401.25;;;10.05;100.00
83733;BME280;73710;49.968;8.338;2023-11-21T08:52:20;100402.13;;;10.05;100.00
83733;BME280;73710;49.968;8.338;2023-11-21T08:54:51;100405.59;;;10.06;100.00
83733;BME280;73710;49.968;8.338;2023-11-21T08:57:24;100419.03;;;10.00;100.00
83733;BME280;73710;49.968;8.338;2023-11-21T08:59:49;100427.53;;;10.05;100.00
83733;BME280;73710;49.968;8.338;2023-11-21T09:02:20;100424.00;;;10.06;100.00
83733;BME280;73710;49.968;8.338;2023-11-21T09:04:47;100420.88;;;9.98;100.00
83733;BME280;73710;49.968;8.338;2023-11-21T09:07:12;100431.16;;;10.02;100.00
83733;BME280;73710;49.968;8.338;2023-11-21T09:09:37;100419.44;;;10.09;100.00
83733;BME280;73710;49.968;8.338;2023-11-21T09:12:03;100426.09;;;10.16;100.00
83733;BME280;73710;49.968;8.338;2023-11-21T09:14:29;100425.88;;;10.21;100.00
83733;BME280;73710;49.968;8.338;2023-11-21T09:16:54;100439.88;;;10.21;100.00
83733;BME280;73710;49.968;8.338;2023-11-21T09:19:21;100437.69;;;10.29;100.00
83733;BME280;73710;49.968;8.338;2023-11-21T09:21:47;100442.19;;;10.27;100.00
83733;BME280;73710;49.968;8.338;2023-11-21T09:24:12;100453.47;;;10.29;99.60
83733;BME280;73710;49.968;8.338;2023-11-21T09:26:37;100448.53;;;10.40;99.64
83733;BME280;73710;49.968;8.338;2023-11-21T09:29:03;100456.09;;;10.46;99.15
83733;BME280;73710;49.968;8.338;2023-11-21T09:31:28;100454.22;;;10.48;98.14
83733;BME280;73710;49.968;8.338;2023-11-21T09:33:54;100460.41;;;10.47;97.49
83733;BME280;73710;49.968;8.338;2023-11-21T09:36:19;100462.72;;;10.53;97.88
83733;BME280;73710;49.968;8.338;2023-11-21T09:38:47;100472.00;;;10.60;97.28
83733;BME280;73710;49.968;8.338;2023-11-21T09:41:26;100471.13;;;10.60;96.95
83733;BME280;73710;49.968;8.338;2023-11-21T09:44:02;100471.06;;;10.61;96.87
83733;BME280;73710;49.968;8.338;2023-11-21T09:46:28;100476.84;;;10.68;96.26
83733;BME280;73710;49.968;8.338;2023-11-21T09:48:56;100472.44;;;10.68;96.37
83733;BME280;73710;49.968;8.338;2023-11-21T09:51:27;100479.25;;;10.73;96.84
83733;BME280;73710;49.968;8.338;2023-11-21T09:53:56;100481.25;;;10.67;97.88
83733;BME280;73710;49.968;8.338;2023-11-21T09:56:24;100483.56;;;10.73;98.22
83733;BME280;73710;49.968;8.338;2023-11-21T09:58:53;100482.75;;;10.89;97.16
83733;BME280;73710;49.968;8.338;2023-11-21T10:01:19;100488.81;;;11.06;95.71
83733;BME280;73710;49.968;8.338;2023-11-21T10:03:45;100492.16;;;11.10;95.09
83733;BME280;73710;49.968;8.338;2023-11-21T10:06:13;100494.78;;;11.10;93.45
83733;BME280;73710;49.968;8.338;2023-11-21T10:08:40;100492.63;;;11.01;93.93
83733;BME280;73710;49.968;8.338;2023-11-21T10:11:06;100500.56;;;11.16;93.32
83733;BME280;73710;49.968;8.338;2023-11-21T10:13:34;100507.53;;;11.33;93.27
83733;BME280;73710;49.968;8.338;2023-11-21T10:16:00;100512.72;;;11.34;91.40
83733;BME280;73710;49.968;8.338;2023-11-21T10:18:32;100506.69;;;11.48;90.79
83733;BME280;73710;49.968;8.338;2023-11-21T10:20:59;100508.91;;;11.55;89.32
83733;BME280;73710;49.968;8.338;2023-11-21T10:23:26;100514.00;;;11.59;88.68
83733;BME280;73710;49.968;8.338;2023-11-21T10:25:52;100512.91;;;11.78;89.48
83733;BME280;73710;49.968;8.338;2023-11-21T10:28:18;100518.19;;;11.94;87.09
83733;BME280;73710;49.968;8.338;2023-11-21T10:30:46;100520.72;;;11.95;86.58
83733;BME280;73710;49.968;8.338;2023-11-21T10:33:11;100524.38;;;12.08;85.87
83733;BME280;73710;49.968;8.338;2023-11-21T10:35:47;100521.91;;;12.05;85.70
83733;BME280;73710;49.968;8.338;2023-11-21T10:38:19;100521.78;;;12.22;85.35
83733;BME280;73710;49.968;8.338;2023-11-21T10:40:48;100521.78;;;12.22;85.27
83733;BME280;73710;49.968;8.338;2023-11-21T10:43:14;100529.59;;;12.24;83.53
83733;BME280;73710;49.968;8.338;2023-11-21T10:45:43;100531.75;;;12.17;84.69
83733;BME280;73710;49.968;8.338;2023-11-21T10:48:10;100519.94;;;12.09;83.39
83733;BME280;73710;49.968;8.338;2023-11-21T10:50:37;100520.63;;;12.12;82.86
83733;BME280;73710;49.968;8.338;2023-11-21T10:53:04;100514.06;;;12.33;83.94
83733;BME280;73710;49.968;8.338;2023-11-21T10:55:30;100514.28;;;12.30;82.25
83733;BME280;73710;49.968;8.338;2023-11-21T10:57:59;100515.41;;;12.26;81.75
83733;BME280;73710;49.968;8.338;2023-11-21T11:00:26;100510.53;;;12.34;80.80
83733;BME280;73710;49.968;8.338;2023-11-21T11:02:52;100510.53;;;12.34;76.23
83733;BME280;73710;49.968;8.338;2023-11-21T11:05:20;100515.56;;;12.23;76.74
83733;BME280;73710;49.968;8.338;2023-11-21T11:08:07;100511.50;;;12.18;78.17
83733;BME280;73710;49.968;8.338;2023-11-21T11:10:34;100524.03;;;12.14;77.80
83733;BME280;73710;49.968;8.338;2023-11-21T11:13:00;100523.16;;;12.14;77.41
83733;BME280;73710;49.968;8.338;2023-11-21T11:15:27;100522.91;;;12.18;75.57
83733;BME280;73710;49.968;8.338;2023-11-21T11:17:53;100525.34;;;12.21;75.17
83733;BME280;73710;49.968;8.338;2023-11-21T11:20:24;100517.28;;;12.24;76.56
83733;BME280;73710;49.968;8.338;2023-11-21T11:25:46;100508.53;;;12.38;77.35
83733;BME280;73710;49.968;8.338;2023-11-21T11:28:27;100503.50;;;12.49;77.75
83733;BME280;73710;49.968;8.338;2023-11-21T11:31:05;100501.72;;;12.64;77.01
83733;BME280;73710;49.968;8.338;2023-11-21T11:33:43;100507.88;;;12.78;75.62
83733;BME280;73710;49.968;8.338;2023-11-21T11:36:14;100511.34;;;12.79;75.52
83733;BME280;73710;49.968;8.338;2023-11-21T11:38:45;100512.69;;;13.00;73.82
83733;BME280;73710;49.968;8.338;2023-11-21T11:41:11;100508.56;;;13.24;72.55
83733;BME280;73710;49.968;8.338;2023-11-21T11:43:37;100507.78;;;13.36;72.97
83733;BME280;73710;49.968;8.338;2023-11-21T11:46:10;100503.09;;;13.27;72.57
83733;BME280;73710;49.968;8.338;2023-11-21T11:48:39;100504.41;;;13.20;72.63
83733;BME280;73710;49.968;8.338;2023-11-21T11:51:12;100508.19;;;13.16;72.31
83733;BME280;73710;49.968;8.338;2023-11-21T11:53:46;100512.81;;;13.27;72.93
83733;BME280;73710;49.968;8.338;2023-11-21T11:56:29;100505.91;;;13.24;72.33
83733;BME280;73710;49.968;8.338;2023-11-21T11:59:02;100514.41;;;13.29;71.83
83733;BME280;73710;49.968;8.338;2023-11-21T12:01:29;100514.41;;;13.29;71.99
83733;BME280;73710;49.968;8.338;2023-11-21T12:07:05;100515.78;;;13.49;71.56
83733;BME280;73710;49.968;8.338;2023-11-21T12:09:31;100519.88;;;13.40;70.04
83733;BME280;73710;49.968;8.338;2023-11-21T12:11:58;100526.47;;;13.33;70.53
83733;BME280;73710;49.968;8.338;2023-11-21T12:14:24;100520.34;;;13.33;70.12
83733;BME280;73710;49.968;8.338;2023-11-21T12:16:49;100525.53;;;13.20;70.47
83733;BME280;73710;49.968;8.338;2023-11-21T12:19:15;100523.88;;;13.05;71.50
83733;BME280;73710;49.968;8.338;2023-11-21T12:21:40;100531.38;;;12.97;72.73
83733;BME280;73710;49.968;8.338;2023-11-21T12:24:07;100526.25;;;12.80;73.43
83733;BME280;73710;49.968;8.338;2023-11-21T12:26:34;100530.84;;;12.62;74.75
83733;BME280;73710;49.968;8.338;2023-11-21T12:29:01;100531.69;;;12.63;75.02
83733;BME280;73710;49.968;8.338;2023-11-21T12:31:28;100538.19;;;12.57;74.46
83733;BME280;73710;49.968;8.338;2023-11-21T12:33:54;100538.91;;;12.45;73.92
83733;BME280;73710;49.968;8.338;2023-11-21T12:36:21;100549.06;;;12.37;74.83
83733;BME280;73710;49.968;8.338;2023-11-21T12:38:47;100541.16;;;12.21;74.84
83733;BME280;73710;49.968;8.338;2023-11-21T12:41:12;100543.59;;;12.10;75.76
83733;BME280;73710;49.968;8.338;2023-11-21T12:43:38;100544.72;;;12.06;76.91
83733;BME280;73710;49.968;8.338;2023-11-21T12:46:08;100551.09;;;11.87;76.54
83733;BME280;73710;49.968;8.338;2023-11-21T12:48:38;100558.22;;;11.85;76.40
83733;BME280;73710;49.968;8.338;2023-11-21T12:51:11;100562.75;;;11.83;77.15
83733;BME280;73710;49.968;8.338;2023-11-21T12:53:38;100559.94;;;11.70;77.47
83733;BME280;73710;49.968;8.338;2023-11-21T12:56:13;100560.13;;;11.67;78.03
83733;BME280;73710;49.968;8.338;2023-11-21T12:58:39;100561.81;;;11.68;77.76
83733;BME280;73710;49.968;8.338;2023-11-21T13:01:07;100564.72;;;11.79;79.07
83733;BME280;73710;49.968;8.338;2023-11-21T13:03:40;100564.38;;;11.85;77.37
83733;BME280;73710;49.968;8.338;2023-11-21T13:06:06;100559.25;;;11.82;76.93
83733;BME280;73710;49.968;8.338;2023-11-21T13:08:33;100565.72;;;11.77;76.72
83733;BME280;73710;49.968;8.338;2023-11-21T13:10:58;100567.06;;;11.68;77.46
83733;BME280;73710;49.968;8.338;2023-11-21T13:13:25;100570.97;;;11.61;76.47
83733;BME280;73710;49.968;8.338;2023-11-21T13:15:56;100573.50;;;11.63;77.63
83733;BME280;73710;49.968;8.338;2023-11-21T13:18:25;100576.31;;;11.60;77.56
83733;BME280;73710;49.968;8.338;2023-11-21T13:20:55;100590.13;;;11.47;77.28
83733;BME280;73710;49.968;8.338;2023-11-21T13:23:21;100593.03;;;11.43;77.14
83733;BME280;73710;49.968;8.338;2023-11-21T13:25:48;100596.59;;;11.42;78.31
83733;BME280;73710;49.968;8.338;2023-11-21T13:28:14;100586.53;;;11.33;79.48
83733;BME280;73710;49.968;8.338;2023-11-21T13:30:46;100593.66;;;11.31;80.28
83733;BME280;73710;49.968;8.338;2023-11-21T13:33:13;100603.69;;;11.24;80.26
83733;BME280;73710;49.968;8.338;2023-11-21T13:35:43;100595.19;;;11.19;80.97
83733;BME280;73710;49.968;8.338;2023-11-21T13:38:18;100603.47;;;11.12;81.51
83733;BME280;73710;49.968;8.338;2023-11-21T13:40:47;100610.63;;;11.10;82.52
83733;BME280;73710;49.968;8.338;2023-11-21T13:43:17;100613.84;;;11.15;81.81
83733;BME280;73710;49.968;8.338;2023-11-21T13:45:46;100613.50;;;11.21;81.50
83733;BME280;73710;49.968;8.338;2023-11-21T13:48:12;100614.72;;;11.31;81.66
83733;BME280;73710;49.968;8.338;2023-11-21T13:50:48;100616.31;;;11.50;80.78
83733;BME280;73710;49.968;8.338;2023-11-21T13:53:35;100623.88;;;11.74;79.49
83733;BME280;73710;49.968;8.338;2023-11-21T13:56:02;100613.84;;;11.80;78.73
83733;BME280;73710;49.968;8.338;2023-11-21T13:58:28;100616.75;;;11.91;77.64
83733;BME280;73710;49.968;8.338;2023-11-21T14:01:19;100626.44;;;12.06;76.69
83733;BME280;73710;49.968;8.338;2023-11-21T14:03:58;100630.25;;;12.32;76.28
83733;BME280;73710;49.968;8.338;2023-11-21T14:06:50;100634.41;;;12.52;75.12
83733;BME280;73710;49.968;8.338;2023-11-21T14:09:20;100636.63;;;12.44;72.28
83733;BME280;73710;49.968;8.338;2023-11-21T14:11:55;100633.53;;;12.35;73.22
83733;BME280;73710;49.968;8.338;2023-11-21T14:14:24;100634.66;;;12.31;73.02
83733;BME280;73710;49.968;8.338;2023-11-21T14:16:50;100635.25;;;12.37;72.82
83733;BME280;73710;49.968;8.338;2023-11-21T14:19:16;100630.16;;;12.18;72.46
83733;BME280;73710;49.968;8.338;2023-11-21T14:21:45;100632.13;;;12.46;72.38
83733;BME280;73710;49.968;8.338;2023-11-21T14:24:12;100632.16;;;13.47;68.88
83733;BME280;73710;49.968;8.338;2023-11-21T14:26:44;100635.06;;;13.99;65.39
83733;BME280;73710;49.968;8.338;2023-11-21T14:29:11;100626.31;;;13.56;67.11
83733;BME280;73710;49.968;8.338;2023-11-21T14:31:40;100641.31;;;13.28;68.86
83733;BME280;73710;49.968;8.338;2023-11-21T14:34:07;100641.69;;;12.92;69.74
83733;BME280;73710;49.968;8.338;2023-11-21T14:36:33;100631.00;;;12.50;72.38
83733;BME280;73710;49.968;8.338;2023-11-21T14:38:59;100638.34;;;12.13;74.86
83733;BME280;73710;49.968;8.338;2023-11-21T14:41:25;100640.53;;;11.74;76.53
83733;BME280;73710;49.968;8.338;2023-11-21T14:43:54;100636.84;;;11.61;78.43
83733;BME280;73710;49.968;8.338;2023-11-21T14:46:20;100637.94;;;11.57;79.29
83733;BME280;73710;49.968;8.338;2023-11-21T14:48:46;100647.63;;;11.39;78.99
83733;BME280;73710;49.968;8.338;2023-11-21T14:51:25;100646.41;;;11.29;78.82
83733;BME280;73710;49.968;8.338;2023-11-21T14:53:54;100650.88;;;11.12;79.43
83733;BME280;73710;49.968;8.338;2023-11-21T14:56:21;100657.38;;;11.05;80.70
83733;BME280;73710;49.968;8.338;2023-11-21T14:58:52;100657.53;;;11.02;80.95
83733;BME280;73710;49.968;8.338;2023-11-21T15:01:18;100658.69;;;10.96;81.08
83733;BME280;73710;49.968;8.338;2023-11-21T15:03:55;100658.38;;;10.85;82.42
83733;BME280;73710;49.968;8.338;2023-11-21T15:06:21;100662.41;;;10.75;82.83
83733;BME280;73710;49.968;8.338;2023-11-21T15:08:58;100660.88;;;10.71;83.12
83733;BME280;73710;49.968;8.338;2023-11-21T15:11:34;100677.78;;;10.65;83.59
83733;BME280;73710;49.968;8.338;2023-11-21T15:13:59;100676.41;;;10.58;83.93
83733;BME280;73710;49.968;8.338;2023-11-21T15:16:32;100676.19;;;10.63;84.16
83733;BME280;73710;49.968;8.338;2023-11-21T15:18:58;100690.63;;;10.54;84.22
83733;BME280;73710;49.968;8.338;2023-11-21T15:21:23;100691.75;;;10.49;84.91
83733;BME280;73710;49.968;8.338;2023-11-21T15:23:49;100694.47;;;10.47;84.98
83733;BME280;73710;49.968;8.338;2023-11-21T15:26:15;100696.00;;;10.51;85.43
83733;BME280;73710;49.968;8.338;2023-11-21T15:28:41;100701.44;;;10.48;85.35
83733;BME280;73710;49.968;8.338;2023-11-21T15:31:06;100693.97;;;10.39;86.59
83733;BME280;73710;49.968;8.338;2023-11-21T15:33:33;100693.41;;;10.33;86.98
83733;BME280;73710;49.968;8.338;2023-11-21T15:36:01;100701.47;;;10.30;87.59
83733;BME280;73710;49.968;8.338;2023-11-21T15:38:27;100706.00;;;10.26;87.80
83733;BME280;73710;49.968;8.338;2023-11-21T15:40:53;100705.72;;;10.32;87.65
83733;BME280;73710;49.968;8.338;2023-11-21T15:43:19;100705.78;;;10.31;87.46
83733;BME280;73710;49.968;8.338;2023-11-21T15:45:45;100712.56;;;10.36;87.55
83733;BME280;73710;49.968;8.338;2023-11-21T15:48:10;100713.63;;;10.32;87.61
83733;BME280;73710;49.968;8.338;2023-11-21T15:50:35;100711.69;;;10.36;87.42
83733;BME280;73710;49.968;8.338;2023-11-21T15:53:02;100709.06;;;10.36;87.33
83733;BME280;73710;49.968;8.338;2023-11-21T15:55:29;100716.16;;;10.34;87.87
83733;BME280;73710;49.968;8.338;2023-11-21T15:57:55;100717.28;;;10.28;88.05
83733;BME280;73710;49.968;8.338;2023-11-21T16:00:20;100715.53;;;10.29;88.25
83733;BME280;73710;49.968;8.338;2023-11-21T16:02:47;100725.47;;;10.22;88.07
83733;BME280;73710;49.968;8.338;2023-11-21T16:05:13;100721.06;;;10.23;88.29
83733;BME280;73710;49.968;8.338;2023-11-21T16:07:42;100728.47;;;10.33;87.49
83733;BME280;73710;49.968;8.338;2023-11-21T16:10:09;100719.09;;;10.28;87.96
83733;BME280;73710;49.968;8.338;2023-11-21T16:12:41;100734.88;;;10.28;88.48
83733;BME280;73710;49.968;8.338;2023-11-21T16:15:07;100731.38;;;10.27;88.49
83733;BME280;73710;49.968;8.338;2023-11-21T16:17:37;100743.75;;;10.25;88.85
83733;BME280;73710;49.968;8.338;2023-11-21T16:20:03;100742.03;;;10.24;88.50
83733;BME280;73710;49.968;8.338;2023-11-21T16:22:36;100743.09;;;10.20;89.43
83733;BME280;73710;49.968;8.338;2023-11-21T16:25:02;100741.53;;;10.16;89.94
83733;BME280;73710;49.968;8.338;2023-11-21T16:27:36;100752.31;;;10.10;90.79
83733;BME280;73710;49.968;8.338;2023-11-21T16:30:04;100746.19;;;10.10;91.49
83733;BME280;73710;49.968;8.338;2023-11-21T16:32:30;100746.44;;;10.04;91.19
83733;BME280;73710;49.968;8.338;2023-11-21T16:34:56;100757.56;;;10.10;91.16
83733;BME280;73710;49.968;8.338;2023-11-21T16:37:22;100757.56;;;10.10;90.96
83733;BME280;73710;49.968;8.338;2023-11-21T16:39:47;100759.38;;;10.08;90.93
83733;BME280;73710;49.968;8.338;2023-11-21T16:42:13;100766.38;;;10.09;91.12
83733;BME280;73710;49.968;8.338;2023-11-21T16:44:39;100764.81;;;10.05;91.66
83733;BME280;73710;49.968;8.338;2023-11-21T16:47:05;100771.94;;;10.02;92.16
83733;BME280;73710;49.968;8.338;2023-11-21T16:49:33;100772.69;;;10.05;92.00
83733;BME280;73710;49.968;8.338;2023-11-21T16:52:01;100773.75;;;10.01;92.65
83733;BME280;73710;49.968;8.338;2023-11-21T16:54:27;100774.81;;;9.97;93.19
83733;BME280;73710;49.968;8.338;2023-11-21T16:56:53;100776.97;;;9.87;93.49
83733;BME280;73710;49.968;8.338;2023-11-21T16:59:18;100786.13;;;9.79;94.07
83733;BME280;73710;49.968;8.338;2023-11-21T17:01:46;100789.75;;;9.76;94.35
83733;BME280;73710;49.968;8.338;2023-11-21T17:04:12;100782.84;;;9.74;94.79
83733;BME280;73710;49.968;8.338;2023-11-21T17:06:41;100788.47;;;9.65;95.65
83733;BME280;73710;49.968;8.338;2023-11-21T17:09:06;100798.47;;;9.57;96.47
83733;BME280;73710;49.968;8.338;2023-11-21T17:11:37;100793.38;;;9.54;97.05
83733;BME280;73710;49.968;8.338;2023-11-21T17:14:03;100788.38;;;9.48;97.63
83733;BME280;73710;49.968;8.338;2023-11-21T17:16:32;100796.78;;;9.56;97.50
83733;BME280;73710;49.968;8.338;2023-11-21T17:18:57;100793.47;;;9.51;97.70
83733;BME280;73710;49.968;8.338;2023-11-21T17:21:23;100803.72;;;9.57;97.51
83733;BME280;73710;49.968;8.338;2023-11-21T17:23:49;100807.34;;;9.54;97.50
83733;BME280;73710;49.968;8.338;2023-11-21T17:26:14;100809.25;;;9.51;97.76
83733;BME280;73710;49.968;8.338;2023-11-21T17:28:43;100815.81;;;9.61;97.05
83733;BME280;73710;49.968;8.338;2023-11-21T17:31:10;100821.06;;;9.61;97.27
83733;BME280;73710;49.968;8.338;2023-11-21T17:33:35;100822.50;;;9.68;96.98
83733;BME280;73710;49.968;8.338;2023-11-21T17:36:03;100822.31;;;9.72;96.72
83733;BME280;73710;49.968;8.338;2023-11-21T17:38:29;100823.31;;;9.70;96.38
83733;BME280;73710;49.968;8.338;2023-11-21T17:40:55;100827.88;;;9.65;96.83
83733;BME280;73710;49.968;8.338;2023-11-21T17:43:20;100826.84;;;9.69;96.67
83733;BME280;73710;49.968;8.338;2023-11-21T17:45:46;100827.34;;;9.77;96.26
83733;BME280;73710;49.968;8.338;2023-11-21T17:48:12;100827.25;;;9.80;96.75
83733;BME280;73710;49.968;8.338;2023-11-21T17:50:38;100830.31;;;9.69;96.54
83733;BME280;73710;49.968;8.338;2023-11-21T17:53:03;100836.69;;;9.64;97.58
83733;BME280;73710;49.968;8.338;2023-11-21T17:55:32;100844.50;;;9.65;97.42
83733;BME280;73710;49.968;8.338;2023-11-21T17:57:57;100846.50;;;9.60;97.94
83733;BME280;73710;49.968;8.338;2023-11-21T18:00:23;100849.31;;;9.56;98.68